Time;durP1;ratioP1;P1;durP2;ratioP2;P2;SDS_P1;SDS_P2;PMS_P1;PMS_P2;Temp;Humidity;BMP_temperature;BMP_pressure;BME280_temperature;BME280_humidity;BME280_pressure;Samples;Min_cycle;Max_cycle;Signal;HPM_P1;HPM_P2
2022/05/17 00:00:39;;;;;;;;;;;;;;;23.67;50.62;99923.41;2080909;28;19916;-38
2022/05/17 00:01:39;;;;;;;;;;;;;;;23.67;50.65;99926.16;2082711;28;20365;-39
2022/05/17 00:02:39;;;;;;;;;;;;;;;23.66;50.62;99924.44;2082817;28;20244;-38
2022/05/17 00:03:40;;;;;;;;;;;;;;;23.65;50.62;99926.31;2084468;28;19916;-38
2022/05/17 00:04:40;;;;;;;;;;;;;;;23.66;50.70;99927.16;2080793;28;19926;-38
2022/05/17 00:05:44;;;;;;;;;;;;;;;23.65;50.70;99929.06;2083243;28;20762;-38
2022/05/17 00:06:44;;;;;;;;;;;;;;;23.65;50.72;99933.72;2078226;28;19917;-38
2022/05/17 00:07:44;;;;;;;;;;;;;;;23.64;50.72;99921.00;2083765;28;20384;-38
2022/05/17 00:08:45;;;;;;;;;;;;;;;23.63;50.65;99931.16;2083921;28;19947;-38
2022/05/17 00:09:45;;;;;;;;;;;;;;;23.64;50.73;99932.00;2078077;28;19968;-38
2022/05/17 00:10:47;;;;;;;;;;;;;;;23.62;50.88;99928.59;2082256;28;21303;-38
2022/05/17 00:11:48;;;;;;;;;;;;;;;23.63;50.74;99924.81;2083975;28;19920;-38
2022/05/17 00:12:50;;;;;;;;;;;;;;;23.63;50.87;99924.81;2077907;28;19985;-38
2022/05/17 00:13:50;;;;;;;;;;;;;;;23.62;50.81;99928.59;2075229;28;19916;-38
2022/05/17 00:14:50;;;;;;;;;;;;;;;23.62;50.85;99923.09;2080835;28;20169;-38
2022/05/17 00:15:54;;;;;;;;;;;;;;;23.61;50.83;99921.38;2082157;28;19963;-38
2022/05/17 00:16:55;;;;;;;;;;;;;;;23.62;50.87;99928.59;2084495;28;20436;-38
2022/05/17 00:17:55;;;;;;;;;;;;;;;23.61;50.90;99926.88;2082447;28;20434;-38
2022/05/17 00:18:55;;;;;;;;;;;;;;;23.61;50.78;99932.38;2077266;28;19917;-38
2022/05/17 00:19:56;;;;;;;;;;;;;;;23.61;50.84;99932.38;2081581;28;19927;-38
2022/05/17 00:20:56;;;;;;;;;;;;;;;23.61;50.81;99929.63;2084110;28;19963;-39
2022/05/17 00:21:57;;;;;;;;;;;;;;;23.61;50.88;99924.97;2083890;28;20035;-38
2022/05/17 00:22:57;;;;;;;;;;;;;;;23.61;50.81;99929.63;2081863;28;19916;-38
2022/05/17 00:23:57;;;;;;;;;;;;;;;23.61;50.88;99924.97;2082538;28;19920;-39
2022/05/17 00:24:57;;;;;;;;;;;;;;;23.62;50.84;99925.84;2084263;28;19916;-38
2022/05/17 00:25:58;;;;;;;;;;;;;;;23.61;50.84;99930.47;2082196;28;19913;-38
2022/05/17 00:26:59;;;;;;;;;;;;;;;23.62;50.90;99931.34;2086571;28;19916;-38
2022/05/17 00:28:00;;;;;;;;;;;;;;;23.62;50.83;99928.59;2084640;28;19966;-38
2022/05/17 00:29:01;;;;;;;;;;;;;;;23.63;50.81;99930.31;2085463;28;19916;-38
2022/05/17 00:30:02;;;;;;;;;;;;;;;23.62;50.81;99923.09;2080959;28;20349;-38
2022/05/17 00:31:03;;;;;;;;;;;;;;;23.62;50.79;99917.59;2084141;28;19916;-38
2022/05/17 00:32:03;;;;;;;;;;;;;;;23.62;50.76;99918.44;2083613;28;19950;-38
2022/05/17 00:33:04;;;;;;;;;;;;;;;23.62;50.82;99920.34;2076696;28;19979;-38
2022/05/17 00:34:05;;;;;;;;;;;;;;;23.61;50.82;99916.72;2082997;28;20146;-38
2022/05/17 00:35:05;;;;;;;;;;;;;;;23.62;50.92;99920.34;2080169;28;19947;-38
2022/05/17 00:36:06;;;;;;;;;;;;;;;23.61;50.88;99919.47;2084347;28;19917;-38
2022/05/17 00:37:06;;;;;;;;;;;;;;;23.61;50.83;99915.88;2084621;28;19921;-38
2022/05/17 00:38:06;;;;;;;;;;;;;;;23.62;50.90;99912.09;2086963;28;19942;-38
2022/05/17 00:39:07;;;;;;;;;;;;;;;23.61;50.97;99915.88;2083744;28;20270;-38
2022/05/17 00:40:09;;;;;;;;;;;;;;;23.61;50.82;99913.97;2085296;28;20212;-38
2022/05/17 00:41:09;;;;;;;;;;;;;;;23.60;51.00;99908.66;2085741;28;20329;-38
2022/05/17 00:42:10;;;;;;;;;;;;;;;23.61;50.94;99910.38;2083901;28;19921;-38
2022/05/17 00:43:12;;;;;;;;;;;;;;;23.60;50.96;99908.66;2086395;28;20349;-38
2022/05/17 00:45:32;;;;;;;;;;;;;;;23.59;51.04;99912.44;2087460;28;19916;-38
2022/05/17 00:46:38;;;;;;;;;;;;;;;23.58;51.02;99911.59;2086492;28;19920;-38
2022/05/17 00:47:43;;;;;;;;;;;;;;;23.58;51.00;99910.75;2085798;28;20779;-38
2022/05/17 00:48:43;;;;;;;;;;;;;;;23.58;51.10;99908.00;2080079;28;20233;-38
2022/05/17 00:49:49;;;;;;;;;;;;;;;23.57;50.91;99914.50;2079996;28;19916;-38
2022/05/17 00:50:51;;;;;;;;;;;;;;;23.57;51.07;99915.41;2081250;28;20383;-38
2022/05/17 00:51:56;;;;;;;;;;;;;;;23.57;51.07;99914.50;2084869;28;19916;-38
2022/05/17 00:52:59;;;;;;;;;;;;;;;23.57;51.08;99909.00;2084667;28;19944;-38
2022/05/17 00:54:02;;;;;;;;;;;;;;;23.57;51.03;99914.50;2082499;28;19920;-38
2022/05/17 00:55:21;;;;;;;;;;;;;;;23.57;51.15;99909.00;2080500;28;19921;-38
2022/05/17 00:56:22;;;;;;;;;;;;;;;23.57;51.18;99909.00;2079627;28;19916;-41
2022/05/17 00:57:28;;;;;;;;;;;;;;;23.56;51.10;99907.31;2082023;28;19909;-38
2022/05/17 00:58:32;;;;;;;;;;;;;;;23.56;51.13;99907.31;2080635;28;19917;-39
2022/05/17 00:59:33;;;;;;;;;;;;;;;23.56;51.11;99904.56;2083945;28;19916;-38
2022/05/17 01:00:36;;;;;;;;;;;;;;;23.56;51.07;99899.91;2084375;28;19963;-38
2022/05/17 01:01:37;;;;;;;;;;;;;;;23.56;51.20;99899.91;2079705;28;19917;-38
2022/05/17 01:02:38;;;;;;;;;;;;;;;23.57;51.05;99903.50;2085251;28;19931;-38
2022/05/17 01:03:44;;;;;;;;;;;;;;;23.56;51.07;99897.16;2084615;28;20239;-38
2022/05/17 01:04:44;;;;;;;;;;;;;;;23.56;51.08;99890.81;2082524;28;19932;-38
2022/05/17 01:05:46;;;;;;;;;;;;;;;23.57;51.15;99901.63;2077591;28;19905;-38
2022/05/17 01:06:51;;;;;;;;;;;;;;;23.57;51.18;99898.00;2085184;28;20253;-38
2022/05/17 01:07:53;;;;;;;;;;;;;;;23.56;51.17;99899.06;2083328;28;19923;-38
2022/05/17 01:08:54;;;;;;;;;;;;;;;23.56;51.08;99899.06;2083555;28;20341;-39
2022/05/17 01:09:54;;;;;;;;;;;;;;;23.57;51.05;99903.50;2079038;28;19931;-38
2022/05/17 01:10:54;;;;;;;;;;;;;;;23.56;51.13;99905.41;2084008;28;19924;-38
2022/05/17 01:11:55;;;;;;;;;;;;;;;23.57;51.18;99895.25;2082590;28;19912;-38
2022/05/17 01:15:35;;;;;;;;;;;;;;;23.56;51.24;99901.81;2078670;28;19917;-38
2022/05/17 01:16:35;;;;;;;;;;;;;;;23.56;51.12;99893.56;2081059;28;19928;-39
2022/05/17 01:17:37;;;;;;;;;;;;;;;23.56;51.10;99893.56;2084397;28;19984;-38
2022/05/17 01:18:40;;;;;;;;;;;;;;;23.54;51.20;99894.59;2084286;28;19963;-39
2022/05/17 01:19:41;;;;;;;;;;;;;;;23.53;51.21;99895.63;2083306;28;20003;-38
2022/05/17 01:20:41;;;;;;;;;;;;;;;23.53;51.21;99887.38;2085302;28;19917;-39
2022/05/17 01:21:42;;;;;;;;;;;;;;;23.53;51.27;99892.88;2085248;28;19920;-39
2022/05/17 01:22:42;;;;;;;;;;;;;;;23.52;51.18;99893.09;2084784;28;19916;-39
2022/05/17 01:23:43;;;;;;;;;;;;;;;23.52;51.30;99893.94;2086695;28;19919;-38
2022/05/17 01:24:43;;;;;;;;;;;;;;;23.52;51.29;99893.94;2083421;28;19917;-38
2022/05/17 01:25:44;;;;;;;;;;;;;;;23.51;51.25;99897.69;2082421;28;19924;-38
2022/05/17 01:26:47;;;;;;;;;;;;;;;23.50;51.32;99890.50;2081859;28;19956;-38
2022/05/17 01:27:57;;;;;;;;;;;;;;;23.52;51.34;99890.34;2085609;28;19916;-38
2022/05/17 01:28:58;;;;;;;;;;;;;;;23.51;51.25;99889.44;2083109;28;20392;-38
2022/05/17 01:29:58;;;;;;;;;;;;;;;23.50;51.38;99887.75;2084837;28;19912;-39
2022/05/17 01:31:04;;;;;;;;;;;;;;;23.50;51.34;99882.25;2085946;28;20003;-39
2022/05/17 01:32:04;;;;;;;;;;;;;;;23.51;51.30;99889.44;2081261;28;19920;-38
2022/05/17 01:33:05;;;;;;;;;;;;;;;23.50;51.34;99887.75;2080854;28;20339;-38
2022/05/17 01:34:12;;;;;;;;;;;;;;;23.50;51.37;99892.41;2083858;28;20410;-38
2022/05/17 01:35:13;;;;;;;;;;;;;;;23.50;51.28;99890.50;2085192;28;20450;-38
2022/05/17 01:36:15;;;;;;;;;;;;;;;23.50;51.45;99890.50;2081609;28;19951;-38
2022/05/17 01:37:16;;;;;;;;;;;;;;;23.50;51.34;99890.50;2081273;28;20230;-38
2022/05/17 01:38:16;;;;;;;;;;;;;;;23.50;51.37;99882.25;2085981;28;19908;-38
2022/05/17 01:39:16;;;;;;;;;;;;;;;23.51;51.28;99889.44;2083915;28;19912;-39
2022/05/17 01:40:17;;;;;;;;;;;;;;;23.50;51.37;99885.00;2079699;28;19970;-38
2022/05/17 01:41:19;;;;;;;;;;;;;;;23.51;51.35;99886.69;2084631;28;20525;-39
2022/05/17 01:42:19;;;;;;;;;;;;;;;23.51;51.23;99880.34;2079926;28;20315;-38
2022/05/17 01:43:19;;;;;;;;;;;;;;;23.51;51.28;99881.19;2080263;28;19924;-39
2022/05/17 01:44:20;;;;;;;;;;;;;;;23.51;51.42;99881.19;2078587;28;19913;-39
2022/05/17 01:45:20;;;;;;;;;;;;;;;23.50;51.28;99882.25;2078944;28;19928;-39
2022/05/17 01:46:21;;;;;;;;;;;;;;;23.51;51.34;99878.44;2085689;28;20282;-38
2022/05/17 01:47:21;;;;;;;;;;;;;;;23.51;51.34;99874.84;2083071;28;20373;-38
2022/05/17 01:48:21;;;;;;;;;;;;;;;23.50;51.40;99879.50;2085154;28;20339;-38
2022/05/17 01:49:21;;;;;;;;;;;;;;;23.51;51.42;99888.59;2080988;28;20219;-38
2022/05/17 01:50:22;;;;;;;;;;;;;;;23.51;51.30;99880.34;2080397;28;20530;-38
2022/05/17 01:51:23;;;;;;;;;;;;;;;23.51;51.36;99878.44;2084928;28;19917;-39
2022/05/17 01:52:24;;;;;;;;;;;;;;;23.50;51.36;99885.00;2081712;28;20530;-39
2022/05/17 01:53:24;;;;;;;;;;;;;;;23.50;51.38;99881.41;2077944;28;20579;-38
2022/05/17 01:54:24;;;;;;;;;;;;;;;23.50;51.40;99879.50;2084831;28;19916;-38
2022/05/17 01:55:25;;;;;;;;;;;;;;;23.50;51.43;99882.25;2084408;28;20421;-39
2022/05/17 01:56:25;;;;;;;;;;;;;;;23.50;51.32;99887.75;2085338;28;19917;-38
2022/05/17 01:57:26;;;;;;;;;;;;;;;23.49;51.39;99872.31;2084547;28;19917;-38
2022/05/17 01:58:26;;;;;;;;;;;;;;;23.49;51.44;99879.66;2084049;28;19916;-38
2022/05/17 01:59:26;;;;;;;;;;;;;;;23.48;51.44;99878.81;2075792;28;20002;-38
2022/05/17 02:00:27;;;;;;;;;;;;;;;23.48;51.52;99877.97;2080905;28;19955;-38
2022/05/17 02:01:27;;;;;;;;;;;;;;;23.48;51.54;99878.81;2084970;28;20327;-38
2022/05/17 02:02:27;;;;;;;;;;;;;;;23.48;51.34;99877.97;2082348;28;19917;-38
2022/05/17 02:03:28;;;;;;;;;;;;;;;23.48;51.57;99877.97;2085306;28;19923;-38
2022/05/17 02:04:28;;;;;;;;;;;;;;;23.47;51.48;99877.13;2083317;28;19923;-38
2022/05/17 02:05:28;;;;;;;;;;;;;;;23.47;51.63;99882.63;2081572;28;19920;-38
2022/05/17 02:06:28;;;;;;;;;;;;;;;23.47;51.61;99881.75;2086084;28;19916;-38
2022/05/17 02:07:29;;;;;;;;;;;;;;;23.47;51.60;99879.00;2081078;28;19952;-38
2022/05/17 02:08:29;;;;;;;;;;;;;;;23.47;51.52;99877.13;2080039;28;19917;-38
2022/05/17 02:09:30;;;;;;;;;;;;;;;23.47;51.70;99876.25;2083130;28;20011;-38
2022/05/17 02:10:30;;;;;;;;;;;;;;;23.46;51.62;99875.41;2077413;28;19928;-38
2022/05/17 02:11:31;;;;;;;;;;;;;;;23.46;51.63;99875.41;2079817;28;19913;-38
2022/05/17 02:12:31;;;;;;;;;;;;;;;23.47;51.75;99876.25;2079097;28;20176;-38
2022/05/17 02:13:31;;;;;;;;;;;;;;;23.47;51.67;99873.50;2080480;28;20562;-38
2022/05/17 02:14:32;;;;;;;;;;;;;;;23.47;51.72;99876.25;2082375;28;20239;-39
2022/05/17 02:15:32;;;;;;;;;;;;;;;23.46;51.55;99875.41;2080377;28;20184;-38
2022/05/17 02:16:34;;;;;;;;;;;;;;;23.46;51.61;99875.41;2086117;28;19928;-38
2022/05/17 02:17:38;;;;;;;;;;;;;;;23.46;51.64;99871.78;2082803;28;19924;-38
2022/05/17 02:18:38;;;;;;;;;;;;;;;23.47;51.70;99874.38;2079810;28;19935;-38
2022/05/17 02:19:38;;;;;;;;;;;;;;;23.47;51.70;99876.25;2084630;28;20246;-38
2022/05/17 02:20:39;;;;;;;;;;;;;;;23.46;51.55;99878.16;2083496;28;20025;-38
2022/05/17 02:21:39;;;;;;;;;;;;;;;23.47;51.57;99882.63;2083232;28;19952;-38
2022/05/17 02:22:40;;;;;;;;;;;;;;;23.46;51.61;99875.41;2081111;28;20422;-38
2022/05/17 02:23:41;;;;;;;;;;;;;;;23.47;51.57;99879.00;2085565;28;19973;-38
2022/05/17 02:24:41;;;;;;;;;;;;;;;23.46;51.69;99875.41;2083998;28;20069;-38
2022/05/17 02:25:42;;;;;;;;;;;;;;;23.46;51.57;99875.41;2077658;28;19920;-38
2022/05/17 02:26:42;;;;;;;;;;;;;;;23.46;51.62;99869.03;2079425;28;19916;-38
2022/05/17 02:27:42;;;;;;;;;;;;;;;23.46;51.63;99875.41;2083023;28;20133;-38
2022/05/17 02:28:43;;;;;;;;;;;;;;;23.47;51.61;99879.88;2081256;28;19913;-38
2022/05/17 02:29:44;;;;;;;;;;;;;;;23.46;51.63;99880.91;2085588;28;19917;-38
2022/05/17 02:30:45;;;;;;;;;;;;;;;23.46;51.62;99878.16;2083107;28;19920;-38
2022/05/17 02:31:45;;;;;;;;;;;;;;;23.46;51.61;99880.91;2078557;28;20233;-38
2022/05/17 02:32:45;;;;;;;;;;;;;;;23.46;51.69;99878.16;2082877;28;19927;-38
2022/05/17 02:33:46;;;;;;;;;;;;;;;23.45;51.58;99867.34;2083864;28;19960;-38
2022/05/17 02:34:47;;;;;;;;;;;;;;;23.45;51.58;99868.19;2082968;28;19908;-38
2022/05/17 02:35:47;;;;;;;;;;;;;;;23.44;51.67;99874.72;2078819;28;19924;-38
2022/05/17 02:36:48;;;;;;;;;;;;;;;23.45;51.81;99873.69;2078140;28;19913;-38
2022/05/17 02:37:48;;;;;;;;;;;;;;;23.44;51.70;99869.22;2078407;28;19921;-38
2022/05/17 02:38:49;;;;;;;;;;;;;;;23.44;51.70;99876.63;2078722;28;19916;-38
2022/05/17 02:39:49;;;;;;;;;;;;;;;23.42;51.72;99876.81;2076135;28;20349;-38
2022/05/17 02:40:49;;;;;;;;;;;;;;;23.43;51.74;99870.28;2079174;28;19981;-38
2022/05/17 02:41:49;;;;;;;;;;;;;;;23.42;51.74;99867.69;2076947;28;20095;-38
2022/05/17 02:42:50;;;;;;;;;;;;;;;23.42;51.82;99871.31;2082027;28;19909;-38
2022/05/17 02:43:50;;;;;;;;;;;;;;;23.42;51.90;99867.69;2083589;28;20752;-38
2022/05/17 02:44:50;;;;;;;;;;;;;;;23.43;51.73;99869.41;2077076;28;20614;-41
2022/05/17 02:45:53;;;;;;;;;;;;;;;23.42;51.83;99863.06;2080619;28;20191;-38
2022/05/17 02:46:53;;;;;;;;;;;;;;;23.42;51.75;99868.56;2085372;28;19908;-38
2022/05/17 02:47:53;;;;;;;;;;;;;;;23.42;51.88;99871.31;2081803;28;20402;-38
2022/05/17 02:48:54;;;;;;;;;;;;;;;23.42;51.88;99867.69;2084951;28;20041;-38
2022/05/17 02:49:54;;;;;;;;;;;;;;;23.42;51.77;99862.19;2082867;28;20445;-38
2022/05/17 02:50:55;;;;;;;;;;;;;;;23.42;51.76;99868.56;2085218;28;19926;-38
2022/05/17 02:51:55;;;;;;;;;;;;;;;23.42;51.89;99863.06;2083546;28;19917;-38
2022/05/17 02:52:55;;;;;;;;;;;;;;;23.43;51.89;99858.41;2083172;28;19920;-38
2022/05/17 02:53:56;;;;;;;;;;;;;;;23.42;51.74;99857.56;2084985;28;20266;-38
2022/05/17 02:54:56;;;;;;;;;;;;;;;23.41;51.89;99858.59;2079956;28;19932;-38
2022/05/17 02:55:56;;;;;;;;;;;;;;;23.42;51.83;99854.81;2083628;28;19917;-38
2022/05/17 02:56:56;;;;;;;;;;;;;;;23.43;51.79;99853.75;2082742;28;19915;-38
2022/05/17 02:57:58;;;;;;;;;;;;;;;23.42;51.89;99857.56;2081389;28;19931;-38
2022/05/17 02:58:58;;;;;;;;;;;;;;;23.42;51.85;99857.56;2086743;28;19951;-38
2022/05/17 02:59:59;;;;;;;;;;;;;;;23.42;51.83;99857.56;2083198;28;20220;-39
2022/05/17 03:01:00;;;;;;;;;;;;;;;23.43;51.84;99853.75;2084823;28;19916;-38
2022/05/17 03:02:00;;;;;;;;;;;;;;;23.41;51.81;99855.84;2086782;28;20132;-38
2022/05/17 03:03:01;;;;;;;;;;;;;;;23.42;51.80;99852.06;2079894;28;19928;-38
2022/05/17 03:04:01;;;;;;;;;;;;;;;23.42;51.85;99854.81;2086699;28;20019;-38
2022/05/17 03:05:01;;;;;;;;;;;;;;;23.41;51.89;99855.84;2081713;28;19920;-38
2022/05/17 03:06:02;;;;;;;;;;;;;;;23.41;51.93;99855.00;2085501;28;19920;-38
2022/05/17 03:07:02;;;;;;;;;;;;;;;23.43;51.70;99858.41;2085457;28;19916;-38
2022/05/17 03:08:03;;;;;;;;;;;;;;;23.41;51.90;99855.00;2082474;28;20298;-38
2022/05/17 03:09:03;;;;;;;;;;;;;;;23.41;51.80;99846.75;2076044;28;19924;-38
2022/05/17 03:10:03;;;;;;;;;;;;;;;23.41;51.71;99849.50;2082289;28;19908;-38
2022/05/17 03:11:07;;;;;;;;;;;;;;;23.40;51.76;99848.63;2083527;28;19916;-38
2022/05/17 03:12:07;;;;;;;;;;;;;;;23.40;51.78;99848.63;2077507;28;19927;-38
2022/05/17 03:13:11;;;;;;;;;;;;;;;23.40;51.82;99842.28;2081514;28;20250;-38
2022/05/17 03:14:13;;;;;;;;;;;;;;;23.39;51.91;99844.16;2083432;28;19966;-38
2022/05/17 03:15:16;;;;;;;;;;;;;;;23.38;51.91;99847.97;2083369;28;20015;-38
2022/05/17 03:16:17;;;;;;;;;;;;;;;23.39;51.97;99846.91;2082768;28;20017;-38
2022/05/17 03:17:17;;;;;;;;;;;;;;;23.38;51.91;99845.22;2085390;28;19913;-38
2022/05/17 03:18:17;;;;;;;;;;;;;;;23.39;51.93;99846.06;2082270;28;19926;-38
2022/05/17 03:19:18;;;;;;;;;;;;;;;23.38;51.90;99850.72;2081808;28;19927;-38
2022/05/17 03:20:18;;;;;;;;;;;;;;;23.38;51.77;99842.47;2079407;28;19917;-39
2022/05/17 03:21:19;;;;;;;;;;;;;;;23.37;51.85;99838.00;2078317;28;20409;-38
2022/05/17 03:22:19;;;;;;;;;;;;;;;23.38;51.91;99844.38;2081082;28;19955;-38
2022/05/17 03:23:19;;;;;;;;;;;;;;;23.38;51.91;99847.13;2070831;28;20368;-38
2022/05/17 03:24:20;;;;;;;;;;;;;;;23.37;51.94;99843.50;2083722;28;20160;-38
2022/05/17 03:25:20;;;;;;;;;;;;;;;23.37;51.83;99843.50;2082921;28;20335;-38
2022/05/17 03:26:20;;;;;;;;;;;;;;;23.37;51.86;99843.50;2076135;28;19930;-38
2022/05/17 03:27:21;;;;;;;;;;;;;;;23.38;51.94;99844.38;2082131;28;19912;-39
2022/05/17 03:28:21;;;;;;;;;;;;;;;23.38;51.90;99845.22;2082800;28;19909;-41
2022/05/17 03:29:22;;;;;;;;;;;;;;;23.38;51.79;99839.72;2077244;28;19917;-38
2022/05/17 03:30:22;;;;;;;;;;;;;;;23.38;51.85;99838.88;2077565;28;19921;-38
2022/05/17 03:31:22;;;;;;;;;;;;;;;23.39;51.82;99851.56;2078967;28;19940;-38
2022/05/17 03:32:23;;;;;;;;;;;;;;;23.39;51.93;99851.56;2082674;28;19924;-38
2022/05/17 03:33:23;;;;;;;;;;;;;;;23.39;51.92;99851.56;2083211;28;19966;-38
2022/05/17 03:34:25;;;;;;;;;;;;;;;23.39;51.80;99846.91;2076797;28;19916;-38
2022/05/17 03:35:25;;;;;;;;;;;;;;;23.39;51.85;99846.06;2082363;28;20001;-38
2022/05/17 03:36:26;;;;;;;;;;;;;;;23.39;51.79;99849.66;2083660;28;19916;-38
2022/05/17 03:37:26;;;;;;;;;;;;;;;23.40;51.92;99854.13;2084896;28;19920;-38
2022/05/17 03:38:26;;;;;;;;;;;;;;;23.40;51.88;99850.53;2080056;28;19920;-38
2022/05/17 03:39:27;;;;;;;;;;;;;;;23.38;51.80;99850.72;2077376;28;19962;-38
2022/05/17 03:40:27;;;;;;;;;;;;;;;23.39;51.68;99852.41;2083304;28;19939;-37
2022/05/17 03:41:28;;;;;;;;;;;;;;;23.38;51.82;99850.72;2082167;28;20062;-37
2022/05/17 03:42:28;;;;;;;;;;;;;;;23.39;51.85;99846.91;2083946;28;19908;-37
2022/05/17 03:43:29;;;;;;;;;;;;;;;23.38;51.93;99853.47;2080646;28;20874;-37
2022/05/17 03:44:29;;;;;;;;;;;;;;;23.38;51.87;99850.72;2078164;28;20239;-37
2022/05/17 03:45:30;;;;;;;;;;;;;;;23.38;51.80;99850.72;2076650;28;19950;-37
2022/05/17 03:46:30;;;;;;;;;;;;;;;23.38;52.00;99850.72;2078508;28;19916;-37
2022/05/17 03:47:30;;;;;;;;;;;;;;;23.38;51.96;99852.63;2085584;28;19916;-45
2022/05/17 03:48:31;;;;;;;;;;;;;;;23.36;51.94;99850.03;2080395;28;19999;-38
2022/05/17 03:49:31;;;;;;;;;;;;;;;23.37;52.02;99848.13;2084646;28;19974;-37
2022/05/17 03:50:31;;;;;;;;;;;;;;;23.36;52.01;99847.28;2077441;28;20359;-38
2022/05/17 03:51:31;;;;;;;;;;;;;;;23.36;51.99;99849.19;2082042;28;19946;-37
2022/05/17 03:52:32;;;;;;;;;;;;;;;23.36;52.08;99852.78;2085591;28;20105;-38
2022/05/17 03:53:32;;;;;;;;;;;;;;;23.35;52.04;99848.34;2082318;28;19923;-38
2022/05/17 03:54:33;;;;;;;;;;;;;;;23.35;51.95;99856.59;2083842;28;19924;-38
2022/05/17 03:55:33;;;;;;;;;;;;;;;23.34;51.97;99854.84;2079494;28;20026;-38
2022/05/17 03:56:33;;;;;;;;;;;;;;;23.34;52.17;99854.84;2083233;28;19923;-38
2022/05/17 03:57:33;;;;;;;;;;;;;;;23.34;52.14;99854.84;2085432;28;19909;-39
2022/05/17 03:58:34;;;;;;;;;;;;;;;23.34;52.13;99854.84;2083063;28;20285;-39
2022/05/17 03:59:34;;;;;;;;;;;;;;;23.33;52.21;99851.25;2082844;28;19913;-38
2022/05/17 04:00:35;;;;;;;;;;;;;;;23.33;52.14;99854.00;2080345;28;19923;-39
2022/05/17 04:01:35;;;;;;;;;;;;;;;23.34;52.22;99860.38;2082043;28;19913;-38
2022/05/17 04:02:39;;;;;;;;;;;;;;;23.32;52.30;99856.94;2084735;28;19915;-38
2022/05/17 04:03:40;;;;;;;;;;;;;;;23.33;52.12;99855.91;2082522;28;19964;-38
2022/05/17 04:04:40;;;;;;;;;;;;;;;23.34;52.11;99860.38;2084226;28;20468;-38
2022/05/17 04:05:40;;;;;;;;;;;;;;;23.33;52.19;99859.50;2083801;28;20134;-38
2022/05/17 04:06:41;;;;;;;;;;;;;;;23.33;52.32;99861.41;2083809;28;19944;-38
2022/05/17 04:07:42;;;;;;;;;;;;;;;23.34;52.06;99860.38;2083215;28;19959;-39
2022/05/17 04:08:42;;;;;;;;;;;;;;;23.34;52.19;99857.59;2085460;28;19916;-38
2022/05/17 04:09:42;;;;;;;;;;;;;;;23.34;52.10;99865.88;2085342;28;20253;-38
2022/05/17 04:10:43;;;;;;;;;;;;;;;23.35;52.08;99861.22;2084140;28;19916;-38
2022/05/17 04:11:43;;;;;;;;;;;;;;;23.34;52.21;99865.88;2085735;28;19923;-39
2022/05/17 04:12:44;;;;;;;;;;;;;;;23.33;52.21;99862.25;2085770;28;19920;-38
2022/05/17 04:13:44;;;;;;;;;;;;;;;23.34;52.33;99863.13;2084449;28;19912;-38
2022/05/17 04:14:45;;;;;;;;;;;;;;;23.34;51.94;99860.38;2084679;28;19920;-38
2022/05/17 04:15:45;;;;;;;;;;;;;;;23.35;52.24;99866.72;2085572;28;19961;-39
2022/05/17 04:16:45;;;;;;;;;;;;;;;23.33;52.09;99867.75;2082968;28;19924;-38
2022/05/17 04:17:46;;;;;;;;;;;;;;;23.33;52.32;99865.00;2086400;28;20322;-39
2022/05/17 04:18:47;;;;;;;;;;;;;;;23.33;52.14;99864.16;2087542;28;19909;-39
2022/05/17 04:19:48;;;;;;;;;;;;;;;23.33;52.05;99859.50;2078947;28;20326;-38
2022/05/17 04:20:48;;;;;;;;;;;;;;;23.34;52.18;99863.13;2085809;28;20165;-39
2022/05/17 04:21:48;;;;;;;;;;;;;;;23.33;52.12;99862.25;2081053;28;19916;-38
2022/05/17 04:22:50;;;;;;;;;;;;;;;23.33;52.19;99861.41;2085894;28;19908;-39
2022/05/17 04:23:50;;;;;;;;;;;;;;;23.33;52.17;99869.66;2081918;28;20157;-38
2022/05/17 04:24:57;;;;;;;;;;;;;;;23.32;52.18;99865.19;2081078;28;21108;-38
2022/05/17 04:25:57;;;;;;;;;;;;;;;23.32;52.20;99856.94;2084949;28;19916;-38
2022/05/17 04:26:57;;;;;;;;;;;;;;;23.32;52.14;99867.94;2084933;28;20051;-38
2022/05/17 04:27:58;;;;;;;;;;;;;;;23.32;52.08;99859.69;2079872;28;19917;-38
2022/05/17 04:28:58;;;;;;;;;;;;;;;23.31;52.29;99861.59;2084163;28;19928;-38
2022/05/17 04:29:58;;;;;;;;;;;;;;;23.30;52.15;99859.88;2083450;28;19917;-38
2022/05/17 04:30:58;;;;;;;;;;;;;;;23.31;52.30;99866.25;2084595;28;19917;-38
2022/05/17 04:31:59;;;;;;;;;;;;;;;23.30;52.14;99864.53;2083498;28;19924;-44
2022/05/17 04:33:00;;;;;;;;;;;;;;;23.31;52.27;99866.25;2082551;28;20224;-38
2022/05/17 04:34:00;;;;;;;;;;;;;;;23.30;52.21;99870.03;2084342;28;19921;-38
2022/05/17 04:35:01;;;;;;;;;;;;;;;23.29;52.29;99868.31;2085547;28;19920;-38
2022/05/17 04:36:01;;;;;;;;;;;;;;;23.29;52.28;99871.91;2080924;28;19916;-40
2022/05/17 04:37:02;;;;;;;;;;;;;;;23.29;52.32;99869.16;2082821;28;19916;-38
2022/05/17 04:38:02;;;;;;;;;;;;;;;23.29;52.34;99862.81;2085832;28;19966;-38
2022/05/17 04:39:03;;;;;;;;;;;;;;;23.28;52.25;99858.34;2081191;28;20310;-38
2022/05/17 04:40:05;;;;;;;;;;;;;;;23.28;52.30;99866.63;2085486;28;20010;-38
2022/05/17 04:41:05;;;;;;;;;;;;;;;23.29;52.29;99862.81;2081567;28;20374;-38
2022/05/17 04:42:06;;;;;;;;;;;;;;;23.28;52.26;99863.88;2083457;28;19912;-39
2022/05/17 04:43:06;;;;;;;;;;;;;;;23.29;52.29;99862.81;2085391;28;19913;-38
2022/05/17 04:44:06;;;;;;;;;;;;;;;23.29;52.25;99873.81;2082684;28;19912;-38
2022/05/17 04:45:08;;;;;;;;;;;;;;;23.28;52.24;99866.63;2083320;28;19924;-38
2022/05/17 04:46:08;;;;;;;;;;;;;;;23.29;52.26;99873.81;2085167;28;19927;-38
2022/05/17 04:47:09;;;;;;;;;;;;;;;23.30;52.37;99872.78;2084312;28;19923;-38
2022/05/17 04:48:10;;;;;;;;;;;;;;;23.29;52.34;99873.81;2084003;28;19924;-38
2022/05/17 04:49:10;;;;;;;;;;;;;;;23.30;52.23;99872.78;2085810;28;20257;-38
2022/05/17 04:50:11;;;;;;;;;;;;;;;23.29;52.29;99869.16;2082865;28;20220;-38
2022/05/17 04:51:12;;;;;;;;;;;;;;;23.29;52.32;99869.16;2084574;28;19922;-38
2022/05/17 04:52:12;;;;;;;;;;;;;;;23.29;52.29;99873.81;2084116;28;19912;-38
2022/05/17 04:53:13;;;;;;;;;;;;;;;23.29;52.26;99871.06;2085208;28;19923;-38
2022/05/17 04:54:13;;;;;;;;;;;;;;;23.29;52.21;99876.56;2085229;28;20187;-38
2022/05/17 04:55:15;;;;;;;;;;;;;;;23.28;52.23;99869.34;2084029;28;20322;-38
2022/05/17 04:56:15;;;;;;;;;;;;;;;23.29;52.24;99873.81;2084592;28;20448;-38
2022/05/17 04:57:15;;;;;;;;;;;;;;;23.29;52.29;99868.31;2083589;28;19920;-38
2022/05/17 04:58:16;;;;;;;;;;;;;;;23.29;52.39;99873.81;2086533;28;20011;-38
2022/05/17 04:59:16;;;;;;;;;;;;;;;23.29;52.29;99876.56;2083466;28;19936;-38
2022/05/17 05:00:19;;;;;;;;;;;;;;;23.29;52.18;99879.31;2084947;28;20019;-38
2022/05/17 05:01:21;;;;;;;;;;;;;;;23.28;52.03;99877.59;2087662;28;19917;-38
2022/05/17 05:02:21;;;;;;;;;;;;;;;23.27;52.25;99875.88;2084933;28;19931;-38
2022/05/17 05:03:21;;;;;;;;;;;;;;;23.27;52.41;99882.25;2085809;28;19917;-38
2022/05/17 05:04:22;;;;;;;;;;;;;;;23.27;52.23;99878.63;2085558;28;20244;-38
2022/05/17 05:05:23;;;;;;;;;;;;;;;23.26;52.28;99883.28;2077081;28;20018;-38
2022/05/17 05:06:24;;;;;;;;;;;;;;;23.27;52.30;99881.38;2083951;28;20137;-38
2022/05/17 05:07:24;;;;;;;;;;;;;;;23.26;52.35;99885.19;2078906;28;19916;-38
2022/05/17 05:08:25;;;;;;;;;;;;;;;23.26;52.41;99885.19;2081810;28;19922;-38
2022/05/17 05:09:25;;;;;;;;;;;;;;;23.26;52.28;99890.69;2085511;28;20147;-38
2022/05/17 05:10:26;;;;;;;;;;;;;;;23.26;52.30;99890.69;2083987;28;20052;-38
2022/05/17 05:11:26;;;;;;;;;;;;;;;23.25;52.40;99888.94;2085734;28;19912;-38
2022/05/17 05:12:27;;;;;;;;;;;;;;;23.25;52.36;99897.19;2084422;28;20328;-38
2022/05/17 05:13:27;;;;;;;;;;;;;;;23.25;52.32;99895.34;2083893;28;19974;-38
2022/05/17 05:14:27;;;;;;;;;;;;;;;23.25;52.33;99883.44;2086065;28;19923;-38
2022/05/17 05:15:28;;;;;;;;;;;;;;;23.25;52.39;99889.84;2081135;28;20691;-38
2022/05/17 05:16:28;;;;;;;;;;;;;;;23.25;52.46;99895.34;2085733;28;20942;-38
2022/05/17 05:17:32;;;;;;;;;;;;;;;23.25;52.47;99895.34;2086426;28;19917;-38
2022/05/17 05:18:32;;;;;;;;;;;;;;;23.25;52.34;99894.44;2081312;28;19956;-38
2022/05/17 05:19:33;;;;;;;;;;;;;;;23.25;52.44;99894.44;2083021;28;19927;-38
2022/05/17 05:20:34;;;;;;;;;;;;;;;23.25;52.34;99899.94;2084874;28;20729;-38
2022/05/17 05:21:35;;;;;;;;;;;;;;;23.26;52.43;99890.69;2083437;28;19909;-38